createdAt,value
2023-02-06T00:00:32.170Z,25.46
2023-02-06T00:01:32.118Z,25.48
2023-02-06T00:02:32.147Z,25.48
2023-02-06T00:03:32.077Z,25.49
2023-02-06T00:04:32.073Z,25.47
2023-02-06T00:05:32.118Z,25.47
2023-02-06T00:06:32.002Z,25.47
2023-02-06T00:07:31.980Z,25.47
2023-02-06T00:08:31.956Z,25.50
2023-02-06T00:09:31.919Z,25.49
2023-02-06T00:10:31.903Z,25.49
2023-02-06T00:11:31.873Z,25.48
2023-02-06T00:12:31.841Z,25.49
2023-02-06T00:13:31.812Z,25.48
2023-02-06T00:14:31.780Z,25.47
2023-02-06T00:15:31.779Z,25.49
2023-02-06T00:16:31.736Z,25.46
2023-02-06T00:17:31.697Z,25.48
2023-02-06T00:18:31.689Z,25.48
2023-02-06T00:19:31.646Z,25.46
2023-02-06T00:20:31.620Z,25.46
2023-02-06T00:21:31.599Z,25.46
2023-02-06T00:22:31.566Z,25.45
2023-02-06T00:23:31.537Z,25.48
2023-02-06T00:24:31.500Z,25.45
2023-02-06T00:25:31.484Z,25.47
2023-02-06T00:26:31.478Z,25.46
2023-02-06T00:27:31.431Z,25.44
2023-02-06T00:28:31.410Z,25.45
2023-02-06T00:29:31.373Z,25.46
2023-02-06T00:30:31.366Z,25.47
2023-02-06T00:31:31.350Z,25.45
2023-02-06T00:32:31.310Z,25.48
2023-02-06T00:33:31.269Z,25.48
2023-02-06T00:34:31.231Z,25.45
2023-02-06T00:35:31.197Z,25.45
2023-02-06T00:36:31.181Z,25.48
2023-02-06T00:37:31.144Z,25.46
2023-02-06T00:38:31.115Z,25.49
2023-02-06T00:39:31.093Z,25.43
2023-02-06T00:40:31.053Z,25.45
2023-02-06T00:41:31.035Z,25.45
2023-02-06T00:42:31.025Z,25.46
2023-02-06T00:43:30.970Z,25.47
2023-02-06T00:44:30.958Z,25.45
2023-02-06T00:45:30.918Z,25.48
2023-02-06T00:46:30.988Z,25.46
2023-02-06T00:47:30.856Z,25.45
2023-02-06T00:48:30.837Z,25.47
2023-02-06T00:49:30.814Z,25.46
2023-02-06T00:50:30.789Z,25.46
2023-02-06T00:51:30.765Z,25.45
2023-02-06T00:52:30.731Z,25.45
2023-02-06T00:53:30.726Z,25.47
2023-02-06T00:54:30.700Z,25.44
2023-02-06T00:55:30.670Z,25.44
2023-02-06T00:56:30.657Z,25.44
2023-02-06T00:57:30.632Z,25.44
2023-02-06T00:58:30.631Z,25.44
2023-02-06T00:59:30.591Z,25.45
2023-02-06T01:00:30.558Z,25.44
2023-02-06T01:01:30.557Z,25.46
2023-02-06T01:02:30.598Z,25.48
2023-02-06T01:03:30.495Z,25.46
2023-02-06T01:04:30.475Z,25.44
2023-02-06T01:05:30.438Z,25.46
2023-02-06T01:06:30.412Z,25.44
2023-02-06T01:07:30.380Z,25.46
2023-02-06T01:08:30.357Z,25.46
2023-02-06T01:09:30.350Z,25.44
2023-02-06T01:10:30.309Z,25.48
2023-02-06T01:11:30.311Z,25.47
2023-02-06T01:12:30.299Z,25.47
2023-02-06T01:13:30.298Z,25.46
2023-02-06T01:14:30.214Z,25.48
2023-02-06T01:15:30.198Z,25.46
2023-02-06T01:16:30.175Z,25.44
2023-02-06T01:17:30.130Z,25.47
2023-02-06T01:18:30.115Z,25.47
2023-02-06T01:19:30.091Z,25.46
2023-02-06T01:20:30.062Z,25.49
2023-02-06T01:21:30.053Z,25.49
2023-02-06T01:22:30.019Z,25.49
2023-02-06T01:23:30.001Z,25.51
2023-02-06T01:24:29.968Z,25.48
2023-02-06T01:25:29.956Z,25.48
2023-02-06T01:26:29.918Z,25.48
2023-02-06T01:27:29.911Z,25.48
2023-02-06T01:28:29.891Z,25.48
2023-02-06T01:29:29.871Z,25.49
2023-02-06T01:30:29.866Z,25.47
2023-02-06T01:31:29.865Z,25.46
2023-02-06T01:32:29.798Z,25.46
2023-02-06T01:33:29.780Z,25.44
2023-02-06T01:34:29.770Z,25.46
2023-02-06T01:35:29.752Z,25.47
2023-02-06T01:36:29.712Z,25.45
2023-02-06T01:37:29.682Z,25.45
2023-02-06T01:38:29.657Z,25.45
2023-02-06T01:39:29.635Z,25.46
2023-02-06T01:40:29.603Z,25.45
2023-02-06T01:41:29.589Z,25.44
2023-02-06T01:42:29.617Z,25.44
2023-02-06T01:43:29.616Z,25.45
2023-02-06T01:44:29.551Z,25.45
2023-02-06T01:45:29.506Z,25.46
2023-02-06T01:46:29.516Z,25.44
2023-02-06T01:47:29.478Z,25.47
2023-02-06T01:48:29.453Z,25.45
2023-02-06T01:49:29.432Z,25.46
2023-02-06T01:50:29.414Z,25.45
2023-02-06T01:51:29.386Z,25.44
2023-02-06T01:52:29.358Z,25.43
2023-02-06T01:53:29.335Z,25.43
2023-02-06T01:54:29.315Z,25.43
2023-02-06T01:55:29.301Z,25.43
2023-02-06T01:56:29.270Z,25.42
2023-02-06T01:57:29.257Z,25.41
2023-02-06T01:58:29.227Z,25.42
2023-02-06T01:59:29.202Z,25.43
2023-02-06T02:00:29.233Z,25.43
2023-02-06T02:01:29.156Z,25.44
2023-02-06T02:02:29.133Z,25.42
2023-02-06T02:03:29.105Z,25.42
2023-02-06T02:04:29.091Z,25.43
2023-02-06T02:05:29.061Z,25.43
2023-02-06T02:06:29.027Z,25.42
2023-02-06T02:07:29.036Z,25.41
2023-02-06T02:08:28.981Z,25.42
2023-02-06T02:09:28.952Z,25.40
2023-02-06T02:10:28.924Z,25.39
2023-02-06T02:11:28.900Z,25.41
2023-02-06T02:12:28.882Z,25.42
2023-02-06T02:13:28.841Z,25.43
2023-02-06T02:14:28.814Z,25.45
2023-02-06T02:15:28.789Z,25.43
2023-02-06T02:16:28.772Z,25.43
2023-02-06T02:17:28.740Z,25.48
2023-02-06T02:18:28.698Z,25.46
2023-02-06T02:19:28.668Z,25.44
2023-02-06T02:20:28.637Z,25.45
2023-02-06T02:21:28.622Z,25.42
2023-02-06T02:22:28.593Z,25.45
2023-02-06T02:23:28.563Z,25.43
2023-02-06T02:24:31.546Z,25.44
2023-02-06T02:25:28.498Z,25.43
2023-02-06T02:26:28.468Z,25.45
2023-02-06T02:27:28.468Z,25.44
2023-02-06T02:28:28.446Z,25.42
2023-02-06T02:29:28.400Z,25.42
2023-02-06T02:30:28.448Z,25.41
2023-02-06T02:31:28.376Z,25.43
2023-02-06T02:32:28.311Z,25.43
2023-02-06T02:33:28.296Z,25.43
2023-02-06T02:34:28.259Z,25.42
2023-02-06T02:35:28.233Z,25.42
2023-02-06T02:36:28.203Z,25.44
2023-02-06T02:37:28.176Z,25.44
2023-02-06T02:38:28.152Z,25.41
2023-02-06T02:39:28.129Z,25.43
2023-02-06T02:40:28.110Z,25.44
2023-02-06T02:41:28.079Z,25.43
2023-02-06T02:42:28.058Z,25.45
2023-02-06T02:43:28.015Z,25.42
2023-02-06T02:44:27.991Z,25.44
2023-02-06T02:45:28.001Z,25.43
2023-02-06T02:46:27.948Z,25.42
2023-02-06T02:47:27.912Z,25.42
2023-02-06T02:48:27.883Z,25.42
2023-02-06T02:49:27.856Z,25.43
2023-02-06T02:50:27.820Z,25.41
2023-02-06T02:51:27.802Z,25.41
2023-02-06T02:52:27.749Z,25.42
2023-02-06T02:53:27.757Z,25.42
2023-02-06T02:54:27.698Z,25.41
2023-02-06T02:55:27.671Z,25.40
2023-02-06T02:56:27.653Z,25.42
2023-02-06T02:57:27.607Z,25.41
2023-02-06T02:58:27.565Z,25.42
2023-02-06T02:59:27.546Z,25.42
2023-02-06T03:00:27.502Z,25.42
2023-02-06T03:01:27.496Z,25.43
2023-02-06T03:02:27.496Z,25.42
2023-02-06T03:03:27.455Z,25.44
2023-02-06T03:04:27.387Z,25.43
2023-02-06T03:05:27.357Z,25.44
2023-02-06T03:06:27.315Z,25.45
2023-02-06T03:07:27.285Z,25.44
2023-02-06T03:08:27.277Z,25.43
2023-02-06T03:09:27.225Z,25.43
2023-02-06T03:10:27.204Z,25.42
2023-02-06T03:11:27.178Z,25.42
2023-02-06T03:12:27.150Z,25.44
2023-02-06T03:13:27.132Z,25.41
2023-02-06T03:14:27.106Z,25.44
2023-02-06T03:15:27.088Z,25.40
2023-02-06T03:16:27.109Z,25.43
2023-02-06T03:17:27.034Z,25.42
2023-02-06T03:18:27.017Z,25.40
2023-02-06T03:19:26.985Z,25.41
2023-02-06T03:20:26.991Z,25.42
2023-02-06T03:21:26.945Z,25.43
2023-02-06T03:22:26.930Z,25.41
2023-02-06T03:23:26.908Z,25.41
2023-02-06T03:24:26.892Z,25.41
2023-02-06T03:25:26.844Z,25.42
2023-02-06T03:26:26.809Z,25.42
2023-02-06T03:27:26.787Z,25.44
2023-02-06T03:28:26.750Z,25.42
2023-02-06T03:29:26.717Z,25.42
2023-02-06T03:30:26.702Z,25.41
2023-02-06T03:31:26.726Z,25.40
2023-02-06T03:32:26.678Z,25.41
2023-02-06T03:33:26.596Z,25.39
2023-02-06T03:34:26.573Z,25.41
2023-02-06T03:35:26.560Z,25.41
2023-02-06T03:36:26.523Z,25.41
2023-02-06T03:37:26.490Z,25.41
2023-02-06T03:38:26.467Z,25.40
2023-02-06T03:39:26.440Z,25.42
2023-02-06T03:40:26.410Z,25.42
2023-02-06T03:41:26.392Z,25.43
2023-02-06T03:42:26.355Z,25.43
2023-02-06T03:43:26.332Z,25.43
2023-02-06T03:44:26.307Z,25.44
2023-02-06T03:45:26.274Z,25.43
2023-02-06T03:46:26.241Z,25.45
2023-02-06T03:47:26.236Z,25.46
2023-02-06T03:48:26.200Z,25.45
2023-02-06T03:49:26.216Z,25.44
2023-02-06T03:50:26.185Z,25.43
2023-02-06T03:51:26.120Z,25.44
2023-02-06T03:52:26.105Z,25.43
2023-02-06T03:53:26.071Z,25.44
2023-02-06T03:54:26.041Z,25.44
2023-02-06T03:55:26.012Z,25.43
2023-02-06T03:56:25.982Z,25.45
2023-02-06T03:57:25.963Z,25.45
2023-02-06T03:58:25.941Z,25.44
2023-02-06T03:59:25.918Z,25.45
2023-02-06T04:00:25.874Z,25.43
2023-02-06T04:01:25.916Z,25.41
2023-02-06T04:02:25.904Z,25.45
2023-02-06T04:03:25.789Z,25.42
2023-02-06T04:04:25.838Z,25.44
2023-02-06T04:05:25.752Z,25.45
2023-02-06T04:06:25.723Z,25.45
2023-02-06T04:07:25.672Z,25.46
2023-02-06T04:08:25.654Z,25.44
2023-02-06T04:09:25.620Z,25.45
2023-02-06T04:10:26.474Z,25.45
2023-02-06T04:11:25.575Z,25.45
2023-02-06T04:12:25.537Z,25.44
2023-02-06T04:13:25.530Z,25.44
2023-02-06T04:14:25.494Z,25.42
2023-02-06T04:15:25.465Z,25.42
2023-02-06T04:16:25.452Z,25.43
2023-02-06T04:17:43.216Z,25.42
2023-02-06T04:18:26.385Z,25.43
2023-02-06T04:19:25.363Z,25.43
2023-02-06T04:20:25.329Z,25.44
2023-02-06T04:21:25.298Z,25.43
2023-02-06T04:22:25.274Z,25.44
2023-02-06T04:23:25.245Z,25.43
2023-02-06T04:24:25.221Z,25.43
2023-02-06T04:25:25.207Z,25.43
2023-02-06T04:26:25.173Z,25.42
2023-02-06T04:27:25.144Z,25.46
2023-02-06T04:28:25.108Z,25.43
2023-02-06T04:29:25.081Z,25.44
2023-02-06T04:30:25.097Z,25.43
2023-02-06T04:31:25.088Z,25.44
2023-02-06T04:32:24.990Z,25.45
2023-02-06T04:33:24.977Z,25.44
2023-02-06T04:34:24.944Z,25.44
2023-02-06T04:35:24.917Z,25.42
2023-02-06T04:36:24.904Z,25.44
2023-02-06T04:37:24.868Z,25.44
2023-02-06T04:38:24.852Z,25.43
2023-02-06T04:39:24.819Z,25.43
2023-02-06T04:40:24.789Z,25.44
2023-02-06T04:41:24.762Z,25.42
2023-02-06T04:42:24.734Z,25.43
2023-02-06T04:43:24.695Z,25.42
2023-02-06T04:44:24.665Z,25.42
2023-02-06T04:45:24.657Z,25.43
2023-02-06T04:46:24.632Z,25.45
2023-02-06T04:47:24.608Z,25.44
2023-02-06T04:48:24.563Z,25.46
2023-02-06T04:49:24.534Z,25.46
2023-02-06T04:50:24.505Z,25.45
2023-02-06T04:51:24.468Z,25.45
2023-02-06T04:52:24.443Z,25.43
2023-02-06T04:53:24.408Z,25.43
2023-02-06T04:54:24.401Z,25.42
2023-02-06T04:55:24.362Z,25.41
2023-02-06T04:56:24.334Z,25.43
2023-02-06T04:57:24.304Z,25.41
2023-02-06T04:58:24.291Z,25.43
2023-02-06T04:59:24.270Z,25.43
2023-02-06T05:00:24.241Z,25.43
2023-02-06T05:01:24.211Z,25.43
2023-02-06T05:02:24.188Z,25.42
2023-02-06T05:03:24.146Z,25.44
2023-02-06T05:04:24.135Z,25.43
2023-02-06T05:05:24.103Z,25.43
2023-02-06T05:06:24.073Z,25.44
2023-02-06T05:07:24.040Z,25.40
2023-02-06T05:08:24.018Z,25.44
2023-02-06T05:09:24.011Z,25.45
2023-02-06T05:10:23.976Z,25.46
2023-02-06T05:11:23.943Z,25.45
2023-02-06T05:12:23.924Z,25.44
2023-02-06T05:13:23.903Z,25.45
2023-02-06T05:14:23.875Z,25.46
2023-02-06T05:15:23.855Z,25.42
2023-02-06T05:16:23.826Z,25.43
2023-02-06T05:17:23.822Z,25.44
2023-02-06T05:18:23.795Z,25.42
2023-02-06T05:19:23.748Z,25.42
2023-02-06T05:20:23.715Z,25.42
2023-02-06T05:21:23.686Z,25.43
2023-02-06T05:22:23.662Z,25.42
2023-02-06T05:23:23.646Z,25.44
2023-02-06T05:24:23.615Z,25.44
2023-02-06T05:25:23.587Z,25.44
2023-02-06T05:26:23.577Z,25.45
2023-02-06T05:27:23.535Z,25.44
2023-02-06T05:28:23.554Z,25.43
2023-02-06T05:29:23.490Z,25.44
2023-02-06T05:30:23.475Z,25.44
2023-02-06T05:31:23.563Z,25.41
2023-02-06T05:32:23.428Z,25.43
2023-02-06T05:33:23.397Z,25.43
2023-02-06T05:34:23.397Z,25.44
2023-02-06T05:35:23.361Z,25.43
2023-02-06T05:36:23.341Z,25.44
2023-02-06T05:37:23.304Z,25.44
2023-02-06T05:38:23.291Z,25.44
2023-02-06T05:39:23.257Z,25.44
2023-02-06T05:40:23.236Z,25.46
2023-02-06T05:41:23.216Z,25.43
2023-02-06T05:42:23.201Z,25.44
2023-02-06T05:43:23.169Z,25.42
2023-02-06T05:44:23.141Z,25.42
2023-02-06T05:45:23.130Z,25.42
2023-02-06T05:46:23.152Z,25.45
2023-02-06T05:47:23.076Z,25.44
2023-02-06T05:48:23.049Z,25.43
2023-02-06T05:49:23.023Z,25.42
2023-02-06T05:50:23.005Z,25.43
2023-02-06T05:51:22.981Z,25.42
2023-02-06T05:52:22.947Z,25.41
2023-02-06T05:53:22.927Z,25.44
2023-02-06T05:54:22.913Z,25.42
2023-02-06T05:55:22.881Z,25.41
2023-02-06T05:56:22.861Z,25.43
2023-02-06T05:57:22.838Z,25.45
2023-02-06T05:58:22.824Z,25.43
2023-02-06T05:59:22.793Z,25.45
2023-02-06T06:00:22.766Z,25.44
2023-02-06T06:01:22.748Z,25.45
2023-02-06T06:02:22.717Z,25.43
2023-02-06T06:03:22.692Z,25.43
2023-02-06T06:04:22.767Z,25.43
2023-02-06T06:05:22.650Z,25.42
2023-02-06T06:06:22.637Z,25.42
2023-02-06T06:07:22.656Z,25.44
2023-02-06T06:08:22.592Z,25.42
2023-02-06T06:09:22.554Z,25.43
2023-02-06T06:10:22.540Z,25.44
2023-02-06T06:11:22.506Z,25.43
2023-02-06T06:12:22.482Z,25.42
2023-02-06T06:13:22.465Z,25.43
2023-02-06T06:14:22.433Z,25.42
2023-02-06T06:15:22.419Z,25.43
2023-02-06T06:16:22.469Z,25.44
2023-02-06T06:17:22.381Z,25.44
2023-02-06T06:18:22.352Z,25.43
2023-02-06T06:19:22.313Z,25.44
2023-02-06T06:20:22.296Z,25.42
2023-02-06T06:21:22.256Z,25.45
2023-02-06T06:22:22.267Z,25.43
2023-02-06T06:23:22.229Z,25.43
2023-02-06T06:24:22.188Z,25.43
2023-02-06T06:25:22.164Z,25.44
2023-02-06T06:26:22.126Z,25.42
2023-02-06T06:27:22.111Z,25.45
2023-02-06T06:28:22.086Z,25.40
2023-02-06T06:29:22.075Z,25.43
2023-02-06T06:30:22.033Z,25.42
2023-02-06T06:31:22.151Z,25.42
2023-02-06T06:32:21.993Z,25.41
2023-02-06T06:33:21.957Z,25.40
2023-02-06T06:34:21.935Z,25.41
2023-02-06T06:35:21.903Z,25.46
2023-02-06T06:36:21.888Z,25.72
2023-02-06T06:37:21.871Z,25.82
2023-02-06T06:38:21.860Z,25.95
2023-02-06T06:39:21.802Z,26.05
2023-02-06T06:40:21.775Z,26.57
2023-02-06T06:41:21.752Z,26.74
2023-02-06T06:42:21.725Z,26.89
2023-02-06T06:43:21.689Z,27.13
2023-02-06T06:44:21.727Z,27.34
2023-02-06T06:45:21.704Z,27.59
2023-02-06T06:46:21.640Z,27.81
2023-02-06T06:47:21.582Z,28.00
2023-02-06T06:48:21.583Z,28.33
2023-02-06T06:49:21.545Z,28.44
2023-02-06T06:50:21.517Z,28.51
2023-02-06T06:51:21.546Z,28.32
2023-02-06T06:52:25.418Z,25.42
2023-02-06T06:53:21.404Z,25.77
2023-02-06T06:54:21.385Z,24.43
2023-02-06T06:55:21.349Z,23.06
2023-02-06T06:56:21.351Z,24.48
2023-02-06T06:57:21.406Z,25.79
2023-02-06T06:58:21.287Z,25.46
2023-02-06T06:59:21.253Z,25.40
2023-02-06T07:00:21.223Z,25.46
2023-02-06T07:01:21.290Z,25.64
2023-02-06T07:02:21.196Z,25.78
2023-02-06T07:03:21.198Z,25.95
2023-02-06T07:04:21.190Z,26.15
2023-02-06T07:05:21.122Z,26.19
2023-02-06T07:06:21.107Z,26.39
2023-02-06T07:07:21.043Z,26.56
2023-02-06T07:08:20.996Z,26.77
2023-02-06T07:09:20.950Z,26.91
2023-02-06T07:10:20.941Z,27.16
2023-02-06T07:11:20.934Z,27.25
2023-02-06T07:12:20.879Z,27.28
2023-02-06T07:13:20.846Z,27.45
2023-02-06T07:14:20.785Z,27.53
2023-02-06T07:15:20.757Z,27.65
2023-02-06T07:16:20.758Z,27.80
2023-02-06T07:17:20.700Z,27.82
2023-02-06T07:18:20.655Z,28.08
2023-02-06T07:19:20.621Z,28.08
2023-02-06T07:20:20.596Z,28.16
2023-02-06T07:21:20.588Z,28.21
2023-02-06T07:22:20.514Z,28.43
2023-02-06T07:23:20.495Z,28.51
2023-02-06T07:24:20.447Z,28.62
2023-02-06T07:25:20.434Z,28.52
2023-02-06T07:26:20.380Z,28.52
2023-02-06T07:27:20.366Z,28.39
2023-02-06T07:28:20.369Z,28.37
2023-02-06T07:29:20.266Z,28.39
2023-02-06T07:30:20.324Z,28.46
2023-02-06T07:31:20.246Z,28.35
2023-02-06T07:32:20.131Z,28.20
2023-02-06T07:33:20.096Z,28.21
2023-02-06T07:34:20.084Z,28.28
2023-02-06T07:35:20.013Z,27.02
2023-02-06T07:36:19.997Z,23.60
2023-02-06T07:37:19.953Z,20.84
2023-02-06T07:38:19.959Z,19.67
2023-02-06T07:39:19.902Z,21.29
2023-02-06T07:40:19.891Z,22.51
2023-02-06T07:41:19.859Z,23.53
2023-02-06T07:42:19.841Z,23.65
2023-02-06T07:43:19.808Z,24.02
2023-02-06T07:44:19.794Z,24.44
2023-02-06T07:45:19.760Z,24.63
2023-02-06T07:46:19.850Z,24.89
2023-02-06T07:47:19.708Z,25.10
2023-02-06T07:48:19.682Z,25.14
2023-02-06T07:49:19.665Z,25.21
2023-02-06T07:50:19.616Z,25.39
2023-02-06T07:51:19.589Z,25.51
2023-02-06T07:52:19.565Z,25.52
2023-02-06T07:53:19.552Z,25.54
2023-02-06T07:54:20.867Z,25.61
2023-02-06T07:55:19.489Z,25.85
2023-02-06T07:56:19.470Z,25.90
2023-02-06T07:57:19.404Z,26.04
2023-02-06T07:58:19.401Z,26.19
2023-02-06T07:59:19.374Z,26.25
2023-02-06T08:00:19.357Z,26.39
2023-02-06T08:01:19.404Z,26.53
2023-02-06T08:02:19.308Z,26.63
2023-02-06T08:03:19.286Z,26.73
2023-02-06T08:04:19.281Z,26.79
2023-02-06T08:05:19.245Z,26.81
2023-02-06T08:06:19.227Z,26.95
2023-02-06T08:07:19.197Z,27.05
2023-02-06T08:08:19.163Z,27.10
2023-02-06T08:09:19.136Z,27.20
2023-02-06T08:10:19.096Z,27.38
2023-02-06T08:11:19.067Z,27.41
2023-02-06T08:12:19.033Z,27.43
2023-02-06T08:13:19.024Z,27.60
2023-02-06T08:14:19.032Z,27.70
2023-02-06T08:15:18.908Z,27.70
2023-02-06T08:16:18.899Z,27.78
2023-02-06T08:17:19.754Z,27.86
2023-02-06T08:18:18.787Z,28.08
2023-02-06T08:19:18.763Z,28.05
2023-02-06T08:20:18.719Z,28.13
2023-02-06T08:21:18.672Z,28.14
2023-02-06T08:22:18.643Z,28.20
2023-02-06T08:23:20.764Z,28.29
2023-02-06T08:24:18.576Z,28.36
2023-02-06T08:25:18.542Z,28.46
2023-02-06T08:26:18.518Z,28.48
2023-02-06T08:27:18.475Z,28.55
2023-02-06T08:28:18.469Z,28.57
2023-02-06T08:29:18.374Z,28.64
2023-02-06T08:30:18.342Z,28.78
2023-02-06T08:31:18.360Z,28.78
2023-02-06T08:32:18.280Z,28.85
2023-02-06T08:33:18.230Z,28.90
2023-02-06T08:34:18.245Z,28.94
2023-02-06T08:35:18.272Z,29.00
2023-02-06T08:36:18.364Z,29.04
2023-02-06T08:37:18.297Z,29.27
2023-02-06T08:38:18.333Z,29.14
2023-02-06T08:39:18.463Z,28.78
2023-02-06T08:40:18.411Z,27.77
2023-02-06T08:41:18.423Z,27.66
2023-02-06T08:42:18.437Z,27.52
2023-02-06T08:43:18.456Z,27.47
2023-02-06T08:44:18.482Z,27.56
2023-02-06T08:45:18.485Z,27.71
2023-02-06T08:46:18.526Z,27.91
2023-02-06T08:47:18.540Z,27.69
2023-02-06T08:48:18.545Z,27.50
2023-02-06T08:49:18.678Z,27.17
2023-02-06T08:50:18.593Z,26.67
2023-02-06T08:51:18.596Z,26.36
2023-02-06T08:52:18.615Z,25.79
2023-02-06T08:53:18.640Z,25.69
2023-02-06T08:54:18.653Z,25.57
2023-02-06T08:55:18.659Z,25.40
2023-02-06T08:56:19.614Z,25.30
2023-02-06T08:57:18.592Z,25.10
2023-02-06T08:58:18.522Z,24.80
2023-02-06T08:59:18.492Z,24.65
2023-02-06T09:00:18.444Z,24.56
2023-02-06T09:01:18.467Z,24.45
2023-02-06T09:02:18.385Z,24.47
2023-02-06T09:03:18.327Z,24.48
2023-02-06T09:04:18.483Z,24.35
2023-02-06T09:05:18.251Z,24.32
2023-02-06T09:06:18.212Z,24.31
2023-02-06T09:07:18.171Z,24.31
2023-02-06T09:08:19.052Z,24.22
2023-02-06T09:09:18.137Z,24.20
2023-02-06T09:10:27.088Z,24.34
2023-02-06T09:11:19.051Z,24.22
2023-02-06T09:12:18.060Z,24.20
2023-02-06T09:13:18.165Z,24.17
2023-02-06T09:14:18.067Z,24.29
2023-02-06T09:15:18.127Z,24.30
2023-02-06T09:16:17.906Z,24.29
2023-02-06T09:17:17.837Z,24.19
2023-02-06T09:18:17.803Z,24.18
2023-02-06T09:19:17.770Z,24.22
2023-02-06T09:20:17.734Z,24.31
2023-02-06T09:21:17.748Z,24.32
2023-02-06T09:22:17.667Z,24.24
2023-02-06T09:23:17.663Z,24.24
2023-02-06T09:24:17.600Z,24.18
2023-02-06T09:25:17.630Z,24.21
2023-02-06T09:26:17.546Z,24.24
2023-02-06T09:27:17.503Z,24.32
2023-02-06T09:28:17.487Z,24.40
2023-02-06T09:29:17.419Z,24.32
2023-02-06T09:30:17.408Z,24.44
2023-02-06T09:31:17.463Z,24.36
2023-02-06T09:32:17.319Z,24.45
2023-02-06T09:33:17.271Z,24.39
2023-02-06T09:34:17.240Z,24.38
2023-02-06T09:35:17.210Z,24.22
2023-02-06T09:36:17.168Z,24.04
2023-02-06T09:37:17.141Z,23.87
2023-02-06T09:38:17.110Z,23.81
2023-02-06T09:39:17.071Z,23.67
2023-02-06T09:40:17.040Z,23.63
2023-02-06T09:41:17.005Z,23.59
2023-02-06T09:42:16.959Z,23.52
2023-02-06T09:43:16.941Z,23.40
2023-02-06T09:44:16.912Z,23.46
2023-02-06T09:45:16.863Z,23.55
2023-02-06T09:46:16.857Z,23.54
2023-02-06T09:47:16.811Z,23.52
2023-02-06T09:48:16.761Z,23.45
2023-02-06T09:49:16.756Z,23.42
2023-02-06T09:50:16.719Z,23.48
2023-02-06T09:51:16.690Z,23.57
2023-02-06T09:52:16.651Z,23.57
2023-02-06T09:53:16.661Z,23.54
2023-02-06T09:54:16.599Z,23.56
2023-02-06T09:55:16.587Z,23.39
2023-02-06T09:56:16.532Z,23.37
2023-02-06T09:57:16.496Z,23.29
2023-02-06T09:58:16.550Z,23.34
2023-02-06T09:59:17.660Z,23.25
2023-02-06T10:00:16.432Z,23.19
2023-02-06T10:01:16.416Z,23.20
2023-02-06T10:02:16.451Z,23.15
2023-02-06T10:03:16.332Z,23.25
2023-02-06T10:04:16.312Z,23.25
2023-02-06T10:05:16.272Z,23.24
2023-02-06T10:06:16.258Z,23.25
2023-02-06T10:07:16.227Z,23.32
2023-02-06T10:08:16.191Z,23.27
2023-02-06T10:09:16.168Z,23.28
2023-02-06T10:10:16.134Z,23.30
2023-02-06T10:11:16.111Z,23.31
2023-02-06T10:12:16.073Z,23.29
2023-02-06T10:13:16.065Z,23.26
2023-02-06T10:14:16.020Z,23.24
2023-02-06T10:15:16.119Z,23.23
2023-02-06T10:16:15.965Z,23.23
2023-02-06T10:17:15.918Z,23.23
2023-02-06T10:18:15.908Z,23.27
2023-02-06T10:19:15.877Z,23.23
2023-02-06T10:20:15.853Z,23.23
2023-02-06T10:21:15.815Z,23.23
2023-02-06T10:22:15.777Z,23.22
2023-02-06T10:23:15.765Z,23.18
2023-02-06T10:24:15.713Z,23.23
2023-02-06T10:25:15.683Z,23.23
2023-02-06T10:26:15.652Z,23.22
2023-02-06T10:27:15.630Z,23.22
2023-02-06T10:28:15.617Z,23.18
2023-02-06T10:29:16.868Z,23.22
2023-02-06T10:30:15.554Z,23.22
2023-02-06T10:31:15.596Z,23.20
2023-02-06T10:32:15.491Z,23.22
2023-02-06T10:33:25.335Z,23.21
2023-02-06T10:34:16.418Z,23.19
2023-02-06T10:35:15.398Z,23.21
2023-02-06T10:36:15.371Z,23.20
2023-02-06T10:37:15.369Z,23.21
2023-02-06T10:38:15.309Z,23.07
2023-02-06T10:39:15.283Z,23.13
2023-02-06T10:40:15.271Z,23.07
2023-02-06T10:41:15.347Z,23.50
2023-02-06T10:42:15.199Z,23.90
2023-02-06T10:43:15.171Z,24.16
2023-02-06T10:44:15.136Z,24.49
2023-02-06T10:45:21.885Z,21.59
2023-02-06T10:46:16.125Z,19.66
2023-02-06T10:47:15.106Z,20.44
2023-02-06T10:48:15.170Z,20.86
2023-02-06T10:49:15.105Z,21.80
2023-02-06T10:50:15.189Z,24.57
2023-02-06T10:51:15.158Z,24.46
2023-02-06T10:52:15.183Z,24.32
2023-02-06T10:53:15.192Z,24.24
2023-02-06T10:54:15.223Z,24.58
2023-02-06T10:55:15.225Z,25.11
2023-02-06T10:56:15.222Z,25.51
2023-02-06T10:57:15.259Z,25.59
2023-02-06T10:58:15.232Z,25.88
2023-02-06T10:59:15.231Z,26.02
2023-02-06T11:00:15.258Z,26.08
2023-02-06T11:01:25.453Z,26.15
2023-02-06T11:02:16.230Z,26.15
2023-02-06T11:03:15.176Z,26.00
2023-02-06T11:04:15.162Z,26.31
2023-02-06T11:05:15.133Z,26.59
2023-02-06T11:06:15.121Z,26.44
2023-02-06T11:07:15.153Z,26.60
2023-02-06T11:08:15.205Z,26.67
2023-02-06T11:09:15.162Z,26.99
2023-02-06T11:10:15.113Z,26.85
2023-02-06T11:11:14.999Z,27.09
2023-02-06T11:12:14.977Z,27.20
2023-02-06T11:13:14.959Z,27.33
2023-02-06T11:14:14.913Z,27.62
2023-02-06T11:15:14.886Z,27.66
2023-02-06T11:16:14.884Z,27.70
2023-02-06T11:17:14.844Z,27.90
2023-02-06T11:18:14.813Z,28.14
2023-02-06T11:19:14.781Z,28.23
2023-02-06T11:20:14.749Z,28.17
2023-02-06T11:21:14.799Z,28.24
2023-02-06T11:22:14.696Z,28.45
2023-02-06T11:23:14.665Z,28.40
2023-02-06T11:24:14.642Z,28.53
2023-02-06T11:25:14.601Z,28.65
2023-02-06T11:26:14.596Z,28.50
2023-02-06T11:27:14.561Z,28.72
2023-02-06T11:28:14.552Z,28.84
2023-02-06T11:29:14.478Z,29.00
2023-02-06T11:30:14.558Z,28.78
2023-02-06T11:31:14.501Z,28.88
2023-02-06T11:32:14.361Z,29.15
2023-02-06T11:33:14.329Z,29.35
2023-02-06T11:34:14.302Z,29.56
2023-02-06T11:35:14.262Z,29.55
2023-02-06T11:36:14.224Z,29.53
2023-02-06T11:37:14.176Z,29.78
2023-02-06T11:38:14.143Z,29.44
2023-02-06T11:39:14.098Z,29.42
2023-02-06T11:40:14.175Z,29.20
2023-02-06T11:41:14.740Z,28.61
2023-02-06T11:42:14.001Z,29.01
2023-02-06T11:43:13.974Z,29.09
2023-02-06T11:44:13.937Z,29.22
2023-02-06T11:45:14.008Z,29.22
2023-02-06T11:46:13.957Z,29.79
2023-02-06T11:47:13.838Z,30.12
2023-02-06T11:48:13.790Z,30.57
2023-02-06T11:49:13.755Z,30.97
2023-02-06T11:50:13.845Z,30.96
2023-02-06T11:51:13.673Z,31.21
2023-02-06T11:52:13.656Z,31.23
2023-02-06T11:53:13.607Z,31.10
2023-02-06T11:54:13.550Z,31.42
2023-02-06T11:55:13.517Z,31.43
2023-02-06T11:56:13.477Z,31.36
2023-02-06T11:57:13.445Z,31.57
2023-02-06T11:58:13.408Z,31.58
2023-02-06T11:59:13.353Z,31.72
2023-02-06T12:00:13.370Z,31.65
2023-02-06T12:01:13.280Z,31.79
2023-02-06T12:02:13.282Z,31.61
2023-02-06T12:03:13.223Z,31.82
2023-02-06T12:04:13.155Z,31.92
2023-02-06T12:05:13.117Z,32.09
2023-02-06T12:06:13.091Z,31.89
2023-02-06T12:07:13.037Z,31.56
2023-02-06T12:08:12.993Z,31.13
2023-02-06T12:09:12.961Z,31.15
2023-02-06T12:10:12.884Z,31.05
2023-02-06T12:11:12.899Z,31.10
2023-02-06T12:12:12.821Z,31.07
2023-02-06T12:13:12.764Z,31.28
2023-02-06T12:14:12.732Z,31.44
2023-02-06T12:15:36.257Z,31.49
2023-02-06T12:16:13.676Z,31.84
2023-02-06T12:17:12.581Z,32.01
2023-02-06T12:18:12.529Z,32.19
2023-02-06T12:19:12.547Z,32.41
2023-02-06T12:20:12.457Z,32.35
2023-02-06T12:21:12.410Z,32.48
2023-02-06T12:22:12.490Z,32.55
2023-02-06T12:23:12.332Z,32.54
2023-02-06T12:24:12.278Z,32.80
2023-02-06T12:25:12.231Z,33.02
2023-02-06T12:26:12.228Z,32.88
2023-02-06T12:27:12.138Z,32.86
2023-02-06T12:28:12.168Z,32.83
2023-02-06T12:29:12.097Z,32.92
2023-02-06T12:30:12.002Z,32.39
2023-02-06T12:31:12.026Z,32.03
2023-02-06T12:32:11.965Z,31.53
2023-02-06T12:33:11.884Z,31.22
2023-02-06T12:34:11.830Z,30.74
2023-02-06T12:35:11.788Z,29.31
2023-02-06T12:36:11.730Z,28.84
2023-02-06T12:37:11.697Z,28.57
2023-02-06T12:38:11.650Z,28.21
2023-02-06T12:39:11.599Z,27.97
2023-02-06T12:40:11.597Z,27.83
2023-02-06T12:41:11.510Z,27.64
2023-02-06T12:42:11.469Z,27.39
2023-02-06T12:43:11.399Z,27.24
2023-02-06T12:44:11.336Z,27.11
2023-02-06T12:45:11.295Z,27.03
2023-02-06T12:46:11.246Z,26.99
2023-02-06T12:47:11.217Z,26.93
2023-02-06T12:48:12.276Z,26.89
2023-02-06T12:49:11.082Z,26.84
2023-02-06T12:50:11.107Z,26.84
2023-02-06T12:51:10.976Z,26.82
2023-02-06T12:52:10.926Z,26.84